Kenhorst, PA

3:32 PM EDT on October 22, 2019 (GMT -0400)
Oakbrook | | Change Station

Elev 269 ft 40.32 °N, 75.95 °W | Updated 6 seconds ago

Rain
Rain
69.1 °F
Feels Like 69.1 °F
N
0
Wind Variable Wind from North
Gusts 0.0 mph

Today
High -- | Low -- °F
--% Chance of Precip.
Yesterday
High -- | Low -- °F
Precip. -- in
Pressure 29.83 in
Visibility 1.0 miles
Clouds Mostly Cloudy 700 ft
Overcast 1500 ft
Dew Point 58 °F
Humidity 69%
Rainfall 0.00 in
Snow Depth Not available.
7:21 AM 6:14 PM
Waning Crescent, 36% visible
METAR KRDG 221854Z 14009KT 1SM R36/P6000FT -RA BR BKN007 OVC015 17/16 A2982 RMK AO2 RAB45 SLP102 P0000 T01670161
Pressure 29.83 in
Visibility 1.0 miles
Clouds Mostly Cloudy 700 ft
Overcast 1500 ft
Dew Point 58 °F
Humidity 69%
Rainfall 0.00 in
Snow Depth Not available.
7:21 AM 6:14 PM
Waning Crescent, 36% visible
METAR KRDG 221854Z 14009KT 1SM R36/P6000FT -RA BR BKN007 OVC015 17/16 A2982 RMK AO2 RAB45 SLP102 P0000 T01670161

Get Severe Weather Alerts

Thanks for signing up!

Be on the lookout for a verification email in your inbox.

You'll start receiving the daily forecast at 6 AM.

×

10-Day Weather Forecast

Almanac

Astronomy

Oct. 22, 2019 Rise Set
Actual Time
Civil Twilight
Nautical Twilight
Astronomical Twilight
Moon
Length of Visible Light
Length of Day
Tomorrow will be .
, % of the Moon is Illuminated

Today's Extremes

State Highs State Lows

Community

WunderPhotos

Category 6

Welcome to Category 6. This is the collective home for Weather Underground's featured writeups by Dr. Jeff Masters (right), Bob Henson (left), Chris Burt, and other regular contributors.

Nearby

Air Quality

  Air Quality AQ Index Pollutant
Not available.

Snow Depth

Station Depth Elevation

Earthquake Activity

City Distance Mag. Time & Date
Minimum magnitude displayed is 2.5.

Coastal Water Temperatures

Place Temperature

Stations

Nearby Weather Stations

Station Location Temp. Windchill Dew Point Humidity Wind Precip. Elev Updated Type
                   

Watches & Warnings

There are currently no watches in effect.